Time;durP1;ratioP1;P1;durP2;ratioP2;P2;SDS_P1;SDS_P2;PMS_P1;PMS_P2;Temp;Humidity;BMP_temperature;BMP_pressure;BME280_temperature;BME280_humidity;BME280_pressure;Samples;Min_cycle;Max_cycle;Signal;HPM_P1;HPM_P2
2022/03/21 00:01:23;;;;;;;;;24.25;22.00;;;;;;;;4939725;28;11685;-79
2022/03/21 00:03:52;;;;;;;;;29.00;21.00;;;;;;;;4948840;28;11625;-79
2022/03/21 00:06:20;;;;;;;;;31.00;28.50;;;;;;;;4940417;28;12390;-80
2022/03/21 00:08:47;;;;;;;;;28.75;26.75;;;;;;;;4940691;28;11696;-80
2022/03/21 00:11:15;;;;;;;;;26.75;23.75;;;;;;;;4937861;28;11602;-79
2022/03/21 00:13:42;;;;;;;;;26.25;22.50;;;;;;;;4942530;28;11632;-79
2022/03/21 00:16:11;;;;;;;;;27.75;26.00;;;;;;;;4945171;28;11681;-80
2022/03/21 00:18:39;;;;;;;;;28.75;23.75;;;;;;;;4996845;28;11593;-80
2022/03/21 00:21:08;;;;;;;;;34.50;29.50;;;;;;;;4942281;28;11616;-80
2022/03/21 00:23:36;;;;;;;;;25.00;24.75;;;;;;;;4944175;28;12476;-80
2022/03/21 00:26:04;;;;;;;;;23.75;23.25;;;;;;;;4944321;28;11725;-80
2022/03/21 00:28:32;;;;;;;;;22.50;21.50;;;;;;;;4937473;28;11656;-80
2022/03/21 00:30:59;;;;;;;;;17.50;17.50;;;;;;;;4937068;28;11650;-80
2022/03/21 00:33:26;;;;;;;;;21.00;19.00;;;;;;;;4943744;28;11634;-80
2022/03/21 00:35:54;;;;;;;;;21.75;17.75;;;;;;;;4943886;28;11634;-80
2022/03/21 00:38:23;;;;;;;;;22.25;17.00;;;;;;;;4943725;28;11729;-80
2022/03/21 00:40:50;;;;;;;;;24.75;22.75;;;;;;;;4945476;28;11573;-80
2022/03/21 00:43:21;;;;;;;;;21.00;18.00;;;;;;;;4943928;28;11690;-80
2022/03/21 00:45:50;;;;;;;;;14.25;12.75;;;;;;;;4946753;28;11551;-80
2022/03/21 00:48:17;;;;;;;;;21.50;21.50;;;;;;;;4950278;28;11594;-80
2022/03/21 00:50:45;;;;;;;;;23.25;21.00;;;;;;;;4940176;28;11720;-80
2022/03/21 00:53:12;;;;;;;;;20.75;17.25;;;;;;;;4949587;28;11569;-80
2022/03/21 00:55:41;;;;;;;;;27.50;23.00;;;;;;;;4942598;28;11761;-80
2022/03/21 00:58:09;;;;;;;;;26.75;23.00;;;;;;;;4943936;28;11584;-80
2022/03/21 01:00:36;;;;;;;;;32.25;28.25;;;;;;;;4934350;28;11543;-80
2022/03/21 01:03:04;;;;;;;;;24.50;22.25;;;;;;;;4941923;28;11753;-80
2022/03/21 01:05:31;;;;;;;;;32.75;30.50;;;;;;;;4942994;28;11635;-80
2022/03/21 01:08:02;;;;;;;;;26.50;22.50;;;;;;;;4942430;28;11689;-79
2022/03/21 01:10:30;;;;;;;;;25.00;24.00;;;;;;;;4943602;28;11626;-80
2022/03/21 01:12:59;;;;;;;;;28.75;25.00;;;;;;;;4945215;28;11610;-80
2022/03/21 01:15:28;;;;;;;;;32.75;28.00;;;;;;;;4933583;28;11648;-79
2022/03/21 01:17:56;;;;;;;;;30.50;24.25;;;;;;;;4939971;28;11774;-80
2022/03/21 01:20:25;;;;;;;;;32.25;29.00;;;;;;;;4942271;28;12538;-79
2022/03/21 01:22:53;;;;;;;;;30.00;25.25;;;;;;;;4941322;28;12543;-80
2022/03/21 01:25:20;;;;;;;;;25.75;25.00;;;;;;;;4948960;28;11621;-80
2022/03/21 01:27:47;;;;;;;;;27.50;24.00;;;;;;;;4985927;28;11575;-80
2022/03/21 01:30:17;;;;;;;;;30.00;26.50;;;;;;;;4935855;28;11741;-80
2022/03/21 01:32:45;;;;;;;;;33.25;27.25;;;;;;;;4927890;28;11589;-81
2022/03/21 01:35:15;;;;;;;;;33.75;32.75;;;;;;;;4943133;28;11610;-80
2022/03/21 01:37:42;;;;;;;;;25.00;24.25;;;;;;;;4943171;28;11600;-80
2022/03/21 01:40:10;;;;;;;;;35.50;29.50;;;;;;;;4941920;28;11580;-80
2022/03/21 01:42:39;;;;;;;;;27.75;26.50;;;;;;;;4941394;28;12463;-80
2022/03/21 01:45:07;;;;;;;;;24.75;24.00;;;;;;;;4942634;28;12481;-81
2022/03/21 01:47:36;;;;;;;;;24.50;23.50;;;;;;;;4941231;28;11656;-80
2022/03/21 01:50:05;;;;;;;;;31.75;26.25;;;;;;;;4944117;28;11599;-80
2022/03/21 01:52:32;;;;;;;;;28.25;25.00;;;;;;;;4939345;28;11611;-80
2022/03/21 01:57:44;;;;;;;;;29.25;26.00;;;;;;;;4936038;28;11607;-80
2022/03/21 02:00:12;;;;;;;;;19.50;19.50;;;;;;;;4944382;28;11572;-80
2022/03/21 02:02:42;;;;;;;;;27.50;24.75;;;;;;;;4943126;28;11585;-80
2022/03/21 02:05:11;;;;;;;;;30.00;28.25;;;;;;;;4945395;28;11563;-79
2022/03/21 02:07:38;;;;;;;;;21.75;21.75;;;;;;;;4942082;28;11603;-80
2022/03/21 02:10:07;;;;;;;;;26.75;26.75;;;;;;;;4939858;28;12310;-80
2022/03/21 02:12:35;;;;;;;;;31.25;27.00;;;;;;;;4933881;28;12513;-80
2022/03/21 02:15:03;;;;;;;;;29.75;25.00;;;;;;;;4972647;28;11703;-79
2022/03/21 02:17:32;;;;;;;;;36.75;28.00;;;;;;;;4943614;28;11651;-80
2022/03/21 02:20:03;;;;;;;;;33.00;30.00;;;;;;;;4943002;28;11704;-80
2022/03/21 02:22:35;;;;;;;;;31.25;27.25;;;;;;;;4941349;28;11764;-79
2022/03/21 02:25:04;;;;;;;;;28.75;28.75;;;;;;;;4934903;28;11557;-80
2022/03/21 02:27:35;;;;;;;;;27.25;23.75;;;;;;;;4940408;28;12405;-80
2022/03/21 02:30:02;;;;;;;;;33.50;28.25;;;;;;;;4941515;28;11620;-80
2022/03/21 02:32:30;;;;;;;;;29.75;28.75;;;;;;;;4955054;28;11521;-80
2022/03/21 02:34:57;;;;;;;;;41.00;35.67;;;;;;;;4937705;28;12463;-80
2022/03/21 02:37:26;;;;;;;;;24.33;22.00;;;;;;;;4942242;28;11666;-80
2022/03/21 02:39:55;;;;;;;;;35.33;33.00;;;;;;;;4941063;28;11609;-80
2022/03/21 02:42:22;;;;;;;;;32.67;31.00;;;;;;;;4982285;28;11680;-80
2022/03/21 02:44:51;;;;;;;;;32.00;25.67;;;;;;;;4939929;28;12436;-80
2022/03/21 02:47:19;;;;;;;;;34.33;32.00;;;;;;;;4942224;28;11572;-79
2022/03/21 02:49:47;;;;;;;;;40.00;35.33;;;;;;;;4941296;28;11561;-81
2022/03/21 02:52:16;;;;;;;;;43.00;31.00;;;;;;;;4931938;28;11608;-80
2022/03/21 02:54:43;;;;;;;;;46.00;38.00;;;;;;;;4941986;28;11649;-80
2022/03/21 02:57:11;;;;;;;;;31.00;31.00;;;;;;;;4940540;28;11748;-80
2022/03/21 02:59:38;;;;;;;;;32.00;28.25;;;;;;;;4940310;28;11792;-80
2022/03/21 03:02:08;;;;;;;;;37.33;33.33;;;;;;;;4929032;28;12456;-80
2022/03/21 03:04:35;;;;;;;;;36.50;33.00;;;;;;;;4930508;28;11615;-80
2022/03/21 03:07:03;;;;;;;;;37.00;35.33;;;;;;;;4993695;28;11652;-80
2022/03/21 03:09:30;;;;;;;;;35.33;28.33;;;;;;;;4941403;28;11779;-79
2022/03/21 03:11:57;;;;;;;;;33.67;27.00;;;;;;;;4940908;28;11623;-80
2022/03/21 03:14:25;;;;;;;;;29.67;23.67;;;;;;;;4943560;28;11588;-80
2022/03/21 03:16:52;;;;;;;;;31.00;25.00;;;;;;;;4939913;28;11703;-81
2022/03/21 03:19:21;;;;;;;;;31.67;31.67;;;;;;;;4928199;28;11587;-81
2022/03/21 03:21:50;;;;;;;;;34.67;31.00;;;;;;;;5001284;28;11752;-80
2022/03/21 03:24:21;;;;;;;;;43.33;36.33;;;;;;;;4987852;28;11575;-80
2022/03/21 03:26:48;;;;;;;;;36.67;33.33;;;;;;;;4940738;28;11603;-80
2022/03/21 03:29:15;;;;;;;;;39.33;35.33;;;;;;;;4941210;28;11577;-80
2022/03/21 03:31:43;;;;;;;;;32.00;32.00;;;;;;;;4940198;28;11662;-80
2022/03/21 03:34:10;;;;;;;;;35.33;30.33;;;;;;;;4937729;28;11589;-80
2022/03/21 03:36:39;;;;;;;;;33.00;28.33;;;;;;;;4939706;28;11678;-81
2022/03/21 03:39:07;;;;;;;;;34.00;29.67;;;;;;;;4930282;28;8856;-81
2022/03/21 03:41:34;;;;;;;;;29.67;29.67;;;;;;;;4940802;29;9010;-80
2022/03/21 03:44:02;;;;;;;;;36.67;33.67;;;;;;;;4940629;28;8894;-80
2022/03/21 03:46:29;;;;;;;;;45.33;35.33;;;;;;;;4949798;28;11610;-80
2022/03/21 03:48:56;;;;;;;;;45.00;35.33;;;;;;;;4945671;28;8911;-80
2022/03/21 03:51:25;;;;;;;;;41.67;37.33;;;;;;;;4940051;28;9635;-81
2022/03/21 03:53:54;;;;;;;;;42.33;35.00;;;;;;;;4943681;28;8876;-81
2022/03/21 03:56:21;;;;;;;;;46.33;41.33;;;;;;;;4944385;28;8924;-80
2022/03/21 03:58:48;;;;;;;;;47.00;38.33;;;;;;;;4949517;28;9693;-79
2022/03/21 04:01:15;;;;;;;;;32.33;32.33;;;;;;;;4941737;28;8813;-79
2022/03/21 04:03:46;;;;;;;;;40.00;35.67;;;;;;;;4943132;28;11589;-79
2022/03/21 04:06:14;;;;;;;;;33.33;28.33;;;;;;;;4942891;28;9678;-80
2022/03/21 04:08:41;;;;;;;;;57.67;43.33;;;;;;;;4943112;28;8943;-80
2022/03/21 04:11:10;;;;;;;;;36.33;34.67;;;;;;;;4943085;28;8853;-80
2022/03/21 04:13:38;;;;;;;;;35.33;28.00;;;;;;;;4944249;28;11628;-81
2022/03/21 04:16:06;;;;;;;;;35.33;35.33;;;;;;;;4942831;28;8869;-80
2022/03/21 04:18:34;;;;;;;;;36.00;36.00;;;;;;;;4943926;28;8884;-80
2022/03/21 04:21:01;;;;;;;;;31.67;29.33;;;;;;;;4946210;28;9658;-81
2022/03/21 04:23:28;;;;;;;;;29.33;28.67;;;;;;;;4930852;28;8857;-80
2022/03/21 04:25:56;;;;;;;;;42.33;37.00;;;;;;;;4967353;28;8861;-80
2022/03/21 04:28:25;;;;;;;;;33.33;30.67;;;;;;;;4942208;28;8899;-80
2022/03/21 04:30:52;;;;;;;;;44.00;38.33;;;;;;;;4940344;28;8850;-80
2022/03/21 04:33:19;;;;;;;;;32.00;29.67;;;;;;;;4943284;28;9651;-80
2022/03/21 04:35:47;;;;;;;;;43.33;35.33;;;;;;;;4943737;28;8884;-80
2022/03/21 04:38:15;;;;;;;;;35.67;29.33;;;;;;;;4947087;28;8882;-80
2022/03/21 04:40:44;;;;;;;;;36.00;29.67;;;;;;;;4953848;28;11602;-81
2022/03/21 04:43:13;;;;;;;;;26.00;26.00;;;;;;;;4939642;28;11699;-80
2022/03/21 04:45:43;;;;;;;;;37.67;34.67;;;;;;;;4936157;28;8908;-80
2022/03/21 04:48:11;;;;;;;;;35.00;35.00;;;;;;;;4942786;28;8880;-79
2022/03/21 04:50:38;;;;;;;;;37.67;35.00;;;;;;;;4942344;28;8880;-80
2022/03/21 04:53:08;;;;;;;;;37.33;33.00;;;;;;;;4943838;28;11615;-79
2022/03/21 04:55:35;;;;;;;;;38.00;30.67;;;;;;;;4974752;28;8885;-79
2022/03/21 04:58:03;;;;;;;;;38.67;31.67;;;;;;;;4943127;28;8876;-79
2022/03/21 05:00:30;;;;;;;;;32.00;25.00;;;;;;;;4976267;28;8812;-80
2022/03/21 05:02:59;;;;;;;;;37.33;31.00;;;;;;;;4942529;28;11713;-80
2022/03/21 05:05:27;;;;;;;;;36.00;32.67;;;;;;;;4941984;28;8888;-79
2022/03/21 05:07:54;;;;;;;;;41.33;32.33;;;;;;;;4942221;28;8922;-80
2022/03/21 05:10:23;;;;;;;;;35.00;30.67;;;;;;;;4946304;28;8865;-83
2022/03/21 05:12:50;;;;;;;;;37.00;31.33;;;;;;;;4945112;28;8905;-81
2022/03/21 05:15:18;;;;;;;;;43.00;33.33;;;;;;;;4943453;28;12664;-81
2022/03/21 05:17:46;;;;;;;;;46.67;40.33;;;;;;;;4947407;28;11666;-81
2022/03/21 05:20:16;;;;;;;;;42.67;41.67;;;;;;;;4943674;28;8885;-81
2022/03/21 05:22:44;;;;;;;;;43.33;39.67;;;;;;;;4943963;28;8900;-81
2022/03/21 05:30:59;;;;;;;;;33.33;33.33;;;;;;;;4942185;28;8829;-80
2022/03/21 05:36:10;;;;;;;;;42.33;37.67;;;;;;;;4901783;28;9055;-79
2022/03/21 05:38:37;;;;;;;;;42.00;37.67;;;;;;;;4931273;28;8999;-80
2022/03/21 05:41:04;;;;;;;;;36.33;33.33;;;;;;;;4924392;28;8878;-80
2022/03/21 05:43:33;;;;;;;;;42.33;40.00;;;;;;;;4924851;28;8927;-80
2022/03/21 05:46:03;;;;;;;;;43.33;40.00;;;;;;;;4933856;28;8882;-79
2022/03/21 05:51:18;;;;;;;;;51.00;43.67;;;;;;;;4938456;28;8876;-78
2022/03/21 05:53:46;;;;;;;;;66.33;54.67;;;;;;;;4939146;28;9693;-79
2022/03/21 05:56:14;;;;;;;;;70.67;55.67;;;;;;;;4937569;28;8891;-78
2022/03/21 05:58:41;;;;;;;;;67.00;57.00;;;;;;;;4938064;28;8875;-78
2022/03/21 06:01:10;;;;;;;;;74.00;59.33;;;;;;;;4936974;28;9590;-79
2022/03/21 06:03:38;;;;;;;;;64.00;52.33;;;;;;;;4936101;28;8918;-79
2022/03/21 06:06:06;;;;;;;;;56.67;48.00;;;;;;;;4937200;28;8987;-80
2022/03/21 06:08:35;;;;;;;;;67.00;54.00;;;;;;;;4935418;28;8896;-80
2022/03/21 06:11:08;;;;;;;;;49.67;44.00;;;;;;;;4947126;28;9037;-80
2022/03/21 06:13:38;;;;;;;;;65.33;50.33;;;;;;;;4938068;28;11631;-79
2022/03/21 06:16:06;;;;;;;;;56.00;47.00;;;;;;;;4936610;28;8914;-79
2022/03/21 06:18:35;;;;;;;;;56.25;45.75;;;;;;;;4936026;28;11689;-80
2022/03/21 06:21:04;;;;;;;;;59.00;47.00;;;;;;;;4936607;28;11594;-78
2022/03/21 06:23:32;;;;;;;;;60.33;49.33;;;;;;;;4936875;28;11622;-80
2022/03/21 06:26:00;;;;;;;;;52.50;43.00;;;;;;;;4937439;28;11663;-77
2022/03/21 06:28:29;;;;;;;;;51.50;43.25;;;;;;;;4931354;28;11711;-79
2022/03/21 06:30:57;;;;;;;;;43.25;42.00;;;;;;;;4939194;28;12355;-84
2022/03/21 06:33:26;;;;;;;;;63.75;48.00;;;;;;;;4941863;28;11637;-83
2022/03/21 06:35:54;;;;;;;;;48.75;42.25;;;;;;;;4938478;28;11666;-77
2022/03/21 06:38:21;;;;;;;;;42.50;39.25;;;;;;;;4942317;28;11699;-82
2022/03/21 06:40:49;;;;;;;;;44.50;40.50;;;;;;;;4941847;28;11590;-84
2022/03/21 06:43:20;;;;;;;;;48.00;42.50;;;;;;;;4942007;28;11618;-83
2022/03/21 06:45:50;;;;;;;;;40.50;38.75;;;;;;;;4942057;28;11606;-85
2022/03/21 06:48:17;;;;;;;;;54.75;44.00;;;;;;;;4941520;28;11699;-83
2022/03/21 06:50:46;;;;;;;;;53.75;43.00;;;;;;;;4943029;28;11676;-84
2022/03/21 06:53:13;;;;;;;;;49.00;44.50;;;;;;;;4941856;28;11647;-86
2022/03/21 06:55:41;;;;;;;;;50.75;42.50;;;;;;;;4943340;28;11715;-85
2022/03/21 06:58:11;;;;;;;;;45.75;42.75;;;;;;;;4942296;28;11672;-85
2022/03/21 07:00:44;;;;;;;;;51.00;38.00;;;;;;;;4975294;28;11524;-86
2022/03/21 07:03:19;;;;;;;;;56.75;44.50;;;;;;;;4942648;28;11615;-82
2022/03/21 07:05:46;;;;;;;;;39.00;37.00;;;;;;;;4941887;28;11741;-85
2022/03/21 07:08:14;;;;;;;;;50.75;42.50;;;;;;;;4939300;28;13001;-87
2022/03/21 07:10:44;;;;;;;;;80.00;62.33;;;;;;;;4956662;28;11605;-86
2022/03/21 07:13:11;;;;;;;;;65.00;52.75;;;;;;;;4942729;29;11635;-82
2022/03/21 07:15:40;;;;;;;;;56.00;47.75;;;;;;;;4940799;29;11573;-85
2022/03/21 07:18:08;;;;;;;;;50.00;43.25;;;;;;;;4943310;28;11682;-83
2022/03/21 07:20:37;;;;;;;;;58.00;47.00;;;;;;;;4942773;28;11647;-84
2022/03/21 07:23:04;;;;;;;;;53.50;43.25;;;;;;;;4944546;28;11601;-83
2022/03/21 07:25:32;;;;;;;;;51.00;42.50;;;;;;;;4946359;28;11607;-85
2022/03/21 07:27:59;;;;;;;;;60.25;47.00;;;;;;;;4943222;28;11608;-86
2022/03/21 07:30:27;;;;;;;;;54.50;45.75;;;;;;;;4935506;28;11590;-81
2022/03/21 07:32:57;;;;;;;;;55.00;44.00;;;;;;;;4940139;28;11638;-84
2022/03/21 07:35:25;;;;;;;;;43.50;41.25;;;;;;;;4946215;28;11642;-83
2022/03/21 07:37:56;;;;;;;;;62.25;48.50;;;;;;;;4945222;28;11621;-83
2022/03/21 07:40:24;;;;;;;;;76.25;58.75;;;;;;;;4946910;28;11622;-85
2022/03/21 07:42:51;;;;;;;;;58.25;49.50;;;;;;;;4944753;28;11631;-83
2022/03/21 07:48:06;;;;;;;;;52.75;44.00;;;;;;;;4936798;28;11539;-84
2022/03/21 07:50:34;;;;;;;;;49.75;44.00;;;;;;;;4931234;28;11607;-83
2022/03/21 07:53:01;;;;;;;;;50.50;43.00;;;;;;;;4941897;28;11667;-82
2022/03/21 07:55:31;;;;;;;;;57.25;43.50;;;;;;;;4945188;28;11581;-84
2022/03/21 07:57:59;;;;;;;;;46.50;42.00;;;;;;;;4941585;28;11571;-75
2022/03/21 08:00:27;;;;;;;;;51.00;41.75;;;;;;;;4941382;28;11708;-72
2022/03/21 08:02:54;;;;;;;;;61.50;46.50;;;;;;;;4941446;28;11588;-75
2022/03/21 08:05:23;;;;;;;;;44.25;39.50;;;;;;;;4942295;28;11625;-74
2022/03/21 08:07:51;;;;;;;;;59.25;48.00;;;;;;;;4942135;28;11623;-75
2022/03/21 08:10:19;;;;;;;;;55.75;46.50;;;;;;;;4944089;28;11588;-74
2022/03/21 08:12:47;;;;;;;;;52.50;42.00;;;;;;;;4938169;28;11576;-74
2022/03/21 08:15:14;;;;;;;;;55.50;45.75;;;;;;;;4942650;28;11624;-74
2022/03/21 08:17:52;;;;;;;;;52.75;45.25;;;;;;;;4944351;28;11596;-75
2022/03/21 08:20:20;;;;;;;;;56.75;44.75;;;;;;;;4942033;28;11607;-73
2022/03/21 08:22:49;;;;;;;;;53.00;43.25;;;;;;;;4941950;28;11671;-74
2022/03/21 08:25:17;;;;;;;;;45.50;40.50;;;;;;;;4925629;28;11585;-74
2022/03/21 08:27:45;;;;;;;;;60.25;45.25;;;;;;;;4942594;28;11556;-74
2022/03/21 08:30:13;;;;;;;;;53.00;44.00;;;;;;;;4937986;28;11589;-74
2022/03/21 08:32:41;;;;;;;;;55.25;44.75;;;;;;;;4942354;28;11567;-74
2022/03/21 08:35:09;;;;;;;;;54.25;43.50;;;;;;;;4942926;28;11603;-74
2022/03/21 08:37:36;;;;;;;;;56.00;46.75;;;;;;;;4970130;28;11526;-75
2022/03/21 08:40:06;;;;;;;;;41.75;39.25;;;;;;;;4953265;28;11538;-74
2022/03/21 08:42:34;;;;;;;;;49.00;39.50;;;;;;;;4942954;28;11567;-74
2022/03/21 08:45:01;;;;;;;;;49.75;40.00;;;;;;;;4947274;28;11775;-75
2022/03/21 08:47:29;;;;;;;;;62.25;50.75;;;;;;;;4943291;28;11522;-74
2022/03/21 08:49:57;;;;;;;;;57.25;46.50;;;;;;;;4932171;28;11688;-74
2022/03/21 08:52:24;;;;;;;;;48.00;43.50;;;;;;;;4944265;28;11612;-75
2022/03/21 08:54:52;;;;;;;;;64.50;51.75;;;;;;;;4941913;28;11600;-75
2022/03/21 08:57:20;;;;;;;;;57.75;46.75;;;;;;;;4946160;28;12369;-74
2022/03/21 08:59:48;;;;;;;;;52.50;43.50;;;;;;;;4942405;28;11608;-77
2022/03/21 09:02:17;;;;;;;;;46.25;41.50;;;;;;;;4952783;28;11601;-76
2022/03/21 09:04:44;;;;;;;;;38.75;37.50;;;;;;;;4943329;28;12387;-74
2022/03/21 09:07:13;;;;;;;;;45.75;40.75;;;;;;;;4940113;28;11659;-73
2022/03/21 09:09:40;;;;;;;;;51.50;42.75;;;;;;;;4943055;28;11302;-75
2022/03/21 09:12:09;;;;;;;;;64.50;52.25;;;;;;;;4942159;28;11614;-76
2022/03/21 09:14:38;;;;;;;;;57.50;49.25;;;;;;;;4942440;28;11676;-75
2022/03/21 09:17:06;;;;;;;;;51.00;39.00;;;;;;;;4941331;28;11748;-75
2022/03/21 09:19:33;;;;;;;;;45.00;39.50;;;;;;;;4943036;28;11036;-74
2022/03/21 09:22:01;;;;;;;;;43.00;37.00;;;;;;;;4942487;28;11064;-75
2022/03/21 09:24:29;;;;;;;;;58.25;46.75;;;;;;;;4943034;28;11316;-76
2022/03/21 09:26:56;;;;;;;;;46.00;34.75;;;;;;;;4942452;28;11058;-75
2022/03/21 09:29:27;;;;;;;;;73.00;58.50;;;;;;;;4942512;28;10445;-76
2022/03/21 09:31:55;;;;;;;;;78.75;63.25;;;;;;;;4936418;28;12389;-74
2022/03/21 09:34:23;;;;;;;;;82.50;62.75;;;;;;;;4941968;28;11591;-76
2022/03/21 09:36:50;;;;;;;;;39.25;36.75;;;;;;;;4945808;28;11651;-76
2022/03/21 09:39:18;;;;;;;;;46.25;39.50;;;;;;;;4941761;28;10266;-76
2022/03/21 09:41:46;;;;;;;;;47.75;39.00;;;;;;;;4942806;28;10305;-76
2022/03/21 09:44:14;;;;;;;;;56.50;46.25;;;;;;;;4941937;28;10074;-75
2022/03/21 09:46:45;;;;;;;;;47.75;40.00;;;;;;;;4940706;28;10870;-74
2022/03/21 09:49:16;;;;;;;;;40.50;35.75;;;;;;;;4940730;28;9975;-73
2022/03/21 09:51:45;;;;;;;;;48.50;40.50;;;;;;;;4945085;28;9665;-73
2022/03/21 09:54:13;;;;;;;;;37.33;34.67;;;;;;;;4946212;28;10242;-73
2022/03/21 09:56:40;;;;;;;;;38.75;35.75;;;;;;;;4935098;28;9362;-73
2022/03/21 09:59:08;;;;;;;;;41.25;36.00;;;;;;;;4940327;28;9650;-73
2022/03/21 10:01:36;;;;;;;;;40.00;35.33;;;;;;;;4950665;28;9528;-74
2022/03/21 10:04:06;;;;;;;;;34.00;32.33;;;;;;;;4939955;28;9257;-74
2022/03/21 10:06:37;;;;;;;;;35.67;33.00;;;;;;;;4937073;28;9893;-73
2022/03/21 10:09:10;;;;;;;;;36.00;29.75;;;;;;;;4941478;28;9133;-74
2022/03/21 10:11:39;;;;;;;;;42.00;37.00;;;;;;;;4942812;28;8872;-75
2022/03/21 10:14:32;;;;;;;;;36.25;33.00;;;;;;;;4940723;28;9119;-76
2022/03/21 10:17:02;;;;;;;;;27.00;26.50;;;;;;;;4941237;28;9009;-78
2022/03/21 10:19:42;;;;;;;;;29.75;26.00;;;;;;;;4942368;28;9541;-79
2022/03/21 10:22:13;;;;;;;;;32.75;29.50;;;;;;;;4941428;28;9014;-78
2022/03/21 10:24:43;;;;;;;;;25.00;22.75;;;;;;;;4940637;28;8916;-79
2022/03/21 10:27:29;;;;;;;;;24.50;24.50;;;;;;;;4941801;28;8873;-77
2022/03/21 10:30:01;;;;;;;;;30.00;27.75;;;;;;;;4937847;28;8900;-80
2022/03/21 10:32:43;;;;;;;;;25.00;25.00;;;;;;;;4922425;28;8983;-80
2022/03/21 10:35:14;;;;;;;;;35.50;33.00;;;;;;;;4945457;28;8869;-78
2022/03/21 10:37:48;;;;;;;;;23.50;23.25;;;;;;;;4939514;28;8860;-77
2022/03/21 10:40:27;;;;;;;;;25.75;24.50;;;;;;;;4937654;28;9035;-77
2022/03/21 10:42:57;;;;;;;;;25.50;22.00;;;;;;;;4940298;28;9029;-78
2022/03/21 10:45:43;;;;;;;;;21.25;19.75;;;;;;;;4944207;28;9788;-79
2022/03/21 10:48:12;;;;;;;;;14.00;10.75;;;;;;;;4934136;28;8865;-78
2022/03/21 10:50:42;;;;;;;;;26.25;22.25;;;;;;;;4936169;28;8876;-78
2022/03/21 10:53:14;;;;;;;;;25.25;24.50;;;;;;;;4940029;28;8965;-78
2022/03/21 10:55:45;;;;;;;;;17.50;17.00;;;;;;;;4924913;28;8861;-82
2022/03/21 10:58:14;;;;;;;;;20.50;19.75;;;;;;;;4945156;28;8945;-76
2022/03/21 11:00:42;;;;;;;;;23.25;22.00;;;;;;;;4943306;28;8914;-77
2022/03/21 11:03:13;;;;;;;;;18.00;18.00;;;;;;;;4941036;28;8893;-77
2022/03/21 11:05:42;;;;;;;;;18.00;18.00;;;;;;;;4940149;28;8970;-78
2022/03/21 11:08:13;;;;;;;;;14.50;14.25;;;;;;;;4940861;28;8860;-78
2022/03/21 11:10:41;;;;;;;;;16.00;15.25;;;;;;;;4940298;28;8978;-78
2022/03/21 11:13:10;;;;;;;;;18.50;15.75;;;;;;;;4986293;28;8907;-77
2022/03/21 11:15:40;;;;;;;;;19.50;16.00;;;;;;;;4938967;28;8894;-78
2022/03/21 11:18:08;;;;;;;;;19.00;15.50;;;;;;;;4941012;28;8888;-76
2022/03/21 11:20:37;;;;;;;;;20.75;20.50;;;;;;;;4940997;28;8900;-77
2022/03/21 11:23:05;;;;;;;;;18.25;18.00;;;;;;;;4940900;28;9663;-77
2022/03/21 11:25:35;;;;;;;;;14.50;13.00;;;;;;;;4940524;28;8950;-78
2022/03/21 11:28:41;;;;;;;;;22.50;22.25;;;;;;;;4942721;28;8897;-76
2022/03/21 11:31:39;;;;;;;;;20.00;19.50;;;;;;;;4945434;28;8797;-76
2022/03/21 11:34:21;;;;;;;;;25.25;21.50;;;;;;;;4912663;28;8894;-76
2022/03/21 11:36:54;;;;;;;;;24.50;22.50;;;;;;;;5005360;28;8921;-75
2022/03/21 11:39:22;;;;;;;;;24.50;20.75;;;;;;;;4940640;28;8880;-76
2022/03/21 11:42:03;;;;;;;;;17.75;17.75;;;;;;;;4939904;28;9472;-76
2022/03/21 11:44:31;;;;;;;;;21.75;16.75;;;;;;;;4939986;28;8872;-76
2022/03/21 11:47:24;;;;;;;;;24.25;23.50;;;;;;;;4993662;28;8905;-77
2022/03/21 11:49:52;;;;;;;;;17.75;17.25;;;;;;;;4937149;28;8888;-77
2022/03/21 11:52:23;;;;;;;;;19.00;15.25;;;;;;;;4940151;28;8860;-78
2022/03/21 11:54:50;;;;;;;;;17.75;17.75;;;;;;;;4945943;28;8912;-80
2022/03/21 11:57:31;;;;;;;;;19.25;18.00;;;;;;;;4940374;28;8901;-78
2022/03/21 12:00:04;;;;;;;;;17.25;16.75;;;;;;;;4939117;28;8892;-79
2022/03/21 12:02:56;;;;;;;;;19.25;19.25;;;;;;;;4944872;28;8873;-80
2022/03/21 12:05:50;;;;;;;;;19.00;18.50;;;;;;;;4932818;28;8873;-77
2022/03/21 12:08:48;;;;;;;;;18.00;16.80;;;;;;;;4938543;28;8865;-77
2022/03/21 12:11:49;;;;;;;;;19.00;17.40;;;;;;;;4942443;28;8908;-77
2022/03/21 12:14:44;;;;;;;;;20.60;19.00;;;;;;;;4943196;28;9650;-80
2022/03/21 12:17:30;;;;;;;;;20.20;18.60;;;;;;;;4942196;28;8982;-77
2022/03/21 12:20:19;;;;;;;;;21.00;19.00;;;;;;;;4942748;28;9007;-77
2022/03/21 12:23:00;;;;;;;;;15.00;15.00;;;;;;;;4925021;28;9049;-79
2022/03/21 12:25:49;;;;;;;;;18.80;17.40;;;;;;;;4942033;28;8892;-79
2022/03/21 12:28:22;;;;;;;;;16.00;14.40;;;;;;;;4985873;28;8904;-78
2022/03/21 12:30:51;;;;;;;;;18.60;17.60;;;;;;;;4941316;28;8821;-75
2022/03/21 12:33:33;;;;;;;;;16.20;16.20;;;;;;;;4942752;28;8893;-78
2022/03/21 12:36:06;;;;;;;;;16.00;16.00;;;;;;;;4950484;28;8881;-77
2022/03/21 12:38:36;;;;;;;;;18.60;18.60;;;;;;;;4969980;28;8922;-78
2022/03/21 12:41:08;;;;;;;;;16.20;16.20;;;;;;;;4943657;28;8877;-79
2022/03/21 12:43:49;;;;;;;;;14.00;14.00;;;;;;;;4941720;28;8892;-77
2022/03/21 12:46:20;;;;;;;;;12.40;11.80;;;;;;;;4938892;28;8917;-78
2022/03/21 12:48:52;;;;;;;;;11.60;11.00;;;;;;;;4942958;28;8910;-78
2022/03/21 12:51:30;;;;;;;;;10.40;10.40;;;;;;;;4941979;28;8932;-77
2022/03/21 12:53:57;;;;;;;;;11.20;10.80;;;;;;;;4943014;28;8860;-77
2022/03/21 12:56:28;;;;;;;;;11.00;11.00;;;;;;;;4937830;28;8895;-79
2022/03/21 12:59:01;;;;;;;;;14.40;11.40;;;;;;;;4943229;28;9006;-79
2022/03/21 13:01:30;;;;;;;;;10.20;10.20;;;;;;;;4940961;28;8859;-77
2022/03/21 13:10:32;;;;;;;;;9.60;9.60;;;;;;;;4942768;28;8910;-77
2022/03/21 13:12:35;;;;;;;;;11.00;11.00;;;;;;;;4940715;28;8855;-80
2022/03/21 13:15:04;;;;;;;;;7.20;7.20;;;;;;;;4942159;28;8880;-76
2022/03/21 13:17:57;;;;;;;;;10.00;8.00;;;;;;;;4992151;28;8912;-78
2022/03/21 13:20:26;;;;;;;;;8.00;8.00;;;;;;;;4943343;28;8909;-81
2022/03/21 13:22:54;;;;;;;;;7.80;7.80;;;;;;;;4941246;28;8897;-78
2022/03/21 13:25:26;;;;;;;;;6.40;6.40;;;;;;;;4942317;28;9011;-80
2022/03/21 13:27:54;;;;;;;;;10.40;8.80;;;;;;;;4988394;28;8876;-78
2022/03/21 13:30:22;;;;;;;;;8.60;8.60;;;;;;;;4967632;28;8866;-78
2022/03/21 13:32:54;;;;;;;;;9.00;8.40;;;;;;;;4941709;28;8950;-79
2022/03/21 13:35:22;;;;;;;;;9.80;9.80;;;;;;;;4943068;28;8912;-78
2022/03/21 13:38:04;;;;;;;;;10.40;9.20;;;;;;;;4936701;28;8999;-77
2022/03/21 13:40:44;;;;;;;;;6.00;6.00;;;;;;;;4941549;28;8947;-78
2022/03/21 13:43:17;;;;;;;;;8.20;8.20;;;;;;;;4942226;28;8897;-76
2022/03/21 13:45:45;;;;;;;;;7.60;7.60;;;;;;;;4940239;28;8876;-77
2022/03/21 13:48:45;;;;;;;;;8.20;8.20;;;;;;;;4941841;28;8868;-78
2022/03/21 13:51:23;;;;;;;;;8.60;8.60;;;;;;;;4941943;28;9397;-78
2022/03/21 13:53:55;;;;;;;;;9.00;9.00;;;;;;;;4931122;28;8979;-78
2022/03/21 13:56:28;;;;;;;;;9.40;9.40;;;;;;;;4942169;28;9036;-79
2022/03/21 13:59:15;;;;;;;;;9.80;9.80;;;;;;;;4942420;28;8880;-78
2022/03/21 14:01:44;;;;;;;;;8.40;8.40;;;;;;;;4940569;28;8809;-77
2022/03/21 14:04:24;;;;;;;;;7.80;7.80;;;;;;;;4940813;28;8892;-79
2022/03/21 14:07:01;;;;;;;;;6.00;6.00;;;;;;;;4940325;28;8926;-78
2022/03/21 14:09:29;;;;;;;;;9.00;9.00;;;;;;;;4941998;28;8885;-77
2022/03/21 14:12:05;;;;;;;;;9.60;8.00;;;;;;;;4940803;28;9725;-79
2022/03/21 14:14:33;;;;;;;;;4.80;4.20;;;;;;;;4945262;28;8936;-77
2022/03/21 14:17:03;;;;;;;;;10.00;10.00;;;;;;;;4946517;28;8881;-78
2022/03/21 14:19:34;;;;;;;;;9.80;9.60;;;;;;;;5006662;28;8915;-78
2022/03/21 14:22:02;;;;;;;;;11.00;11.00;;;;;;;;4935204;28;8889;-79
2022/03/21 14:24:30;;;;;;;;;11.20;11.20;;;;;;;;4940543;28;8990;-78
2022/03/21 14:27:01;;;;;;;;;13.20;13.20;;;;;;;;4983626;28;8874;-79
2022/03/21 14:29:29;;;;;;;;;9.20;9.20;;;;;;;;4939775;28;8904;-76
2022/03/21 14:31:56;;;;;;;;;15.40;14.00;;;;;;;;4939890;28;8959;-77
2022/03/21 14:34:25;;;;;;;;;16.00;16.00;;;;;;;;4940369;28;8912;-77
2022/03/21 14:36:54;;;;;;;;;17.60;16.80;;;;;;;;4939587;28;8909;-77
2022/03/21 14:39:26;;;;;;;;;18.80;18.20;;;;;;;;4940934;28;8864;-78
2022/03/21 14:41:53;;;;;;;;;19.80;16.80;;;;;;;;4940588;28;8961;-77
2022/03/21 14:44:22;;;;;;;;;14.80;14.80;;;;;;;;4984340;28;8849;-81
2022/03/21 14:46:50;;;;;;;;;12.20;12.20;;;;;;;;4939911;28;8912;-77
2022/03/21 14:49:18;;;;;;;;;17.80;17.00;;;;;;;;4941565;28;8912;-78
2022/03/21 14:51:48;;;;;;;;;15.00;14.60;;;;;;;;4939843;28;8856;-83
2022/03/21 14:54:17;;;;;;;;;17.80;16.80;;;;;;;;4934837;28;8883;-80
2022/03/21 14:56:44;;;;;;;;;15.60;14.60;;;;;;;;4938877;28;8889;-77
2022/03/21 14:59:12;;;;;;;;;18.20;16.80;;;;;;;;4941344;28;8881;-78
2022/03/21 15:01:40;;;;;;;;;13.40;13.40;;;;;;;;4940633;28;8823;-78
2022/03/21 15:04:07;;;;;;;;;16.00;16.00;;;;;;;;5004887;28;8966;-80
2022/03/21 15:06:35;;;;;;;;;16.40;15.40;;;;;;;;5006329;28;8903;-78